sensor_id;sensor_type;location;lat;lon;timestamp;temperature;humidity
65235;DHT22;51820;48.374;10.930;2022-08-23T00:01:22;19.10;46.00
65235;DHT22;51820;48.374;10.930;2022-08-23T00:03:52;19.10;46.50
65235;DHT22;51820;48.374;10.930;2022-08-23T00:06:22;19.00;46.70
65235;DHT22;51820;48.374;10.930;2022-08-23T00:08:51;19.00;46.80
65235;DHT22;51820;48.374;10.930;2022-08-23T00:11:24;19.10;47.20
65235;DHT22;51820;48.374;10.930;2022-08-23T00:16:24;19.00;47.00
65235;DHT22;51820;48.374;10.930;2022-08-23T00:21:21;19.10;46.80
65235;DHT22;51820;48.374;10.930;2022-08-23T00:33:45;16.40;64.60
65235;DHT22;51820;48.374;10.930;2022-08-23T00:43:40;18.70;45.90
65235;DHT22;51820;48.374;10.930;2022-08-23T00:46:43;18.70;45.80
65235;DHT22;51820;48.374;10.930;2022-08-23T00:49:33;18.70;46.00
65235;DHT22;51820;48.374;10.930;2022-08-23T00:52:06;24.00;69.00
65235;DHT22;51820;48.374;10.930;2022-08-23T00:54:37;18.70;45.60
65235;DHT22;51820;48.374;10.930;2022-08-23T00:57:12;18.70;44.90
65235;DHT22;51820;48.374;10.930;2022-08-23T01:04:44;18.50;45.10
65235;DHT22;51820;48.374;10.930;2022-08-23T01:07:17;18.50;45.50
65235;DHT22;51820;48.374;10.930;2022-08-23T01:09:48;18.50;45.80
65235;DHT22;51820;48.374;10.930;2022-08-23T01:12:22;18.50;46.00
65235;DHT22;51820;48.374;10.930;2022-08-23T01:15:03;18.50;45.30
65235;DHT22;51820;48.374;10.930;2022-08-23T01:17:35;16.60;64.80
65235;DHT22;51820;48.374;10.930;2022-08-23T01:20:09;18.20;45.20
65235;DHT22;51820;48.374;10.930;2022-08-23T01:22:44;18.20;45.60
65235;DHT22;51820;48.374;10.930;2022-08-23T01:25:16;18.10;45.80
65235;DHT22;51820;48.374;10.930;2022-08-23T01:27:48;18.00;46.30
65235;DHT22;51820;48.374;10.930;2022-08-23T01:30:19;18.00;46.40
65235;DHT22;51820;48.374;10.930;2022-08-23T01:32:50;18.00;46.60
65235;DHT22;51820;48.374;10.930;2022-08-23T01:35:22;18.00;46.70
65235;DHT22;51820;48.374;10.930;2022-08-23T01:40:24;18.10;47.00
65235;DHT22;51820;48.374;10.930;2022-08-23T01:45:22;18.10;68.10
65235;DHT22;51820;48.374;10.930;2022-08-23T01:50:20;18.00;47.70
65235;DHT22;51820;48.374;10.930;2022-08-23T01:57:53;18.00;48.60
65235;DHT22;51820;48.374;10.930;2022-08-23T02:00:25;18.00;49.00
65235;DHT22;51820;48.374;10.930;2022-08-23T02:05:24;18.00;49.70
65235;DHT22;51820;48.374;10.930;2022-08-23T02:12:51;17.90;50.20
65235;DHT22;51820;48.374;10.930;2022-08-23T02:25:18;17.50;72.20
65235;DHT22;51820;48.374;10.930;2022-08-23T02:30:17;17.70;51.60
65235;DHT22;51820;48.374;10.930;2022-08-23T02:47:45;17.70;51.50
65235;DHT22;51820;48.374;10.930;2022-08-23T02:50:25;23.00;75.10
65235;DHT22;51820;48.374;10.930;2022-08-23T02:52:54;17.60;51.70
65235;DHT22;51820;48.374;10.930;2022-08-23T02:55:25;16.70;65.20
65235;DHT22;51820;48.374;10.930;2022-08-23T03:00:22;17.40;51.90
65235;DHT22;51820;48.374;10.930;2022-08-23T03:02:52;17.40;51.80
65235;DHT22;51820;48.374;10.930;2022-08-23T03:20:20;17.30;51.20
65235;DHT22;51820;48.374;10.930;2022-08-23T03:35:43;17.00;52.00
65235;DHT22;51820;48.374;10.930;2022-08-23T03:38:12;16.30;72.30
65235;DHT22;51820;48.374;10.930;2022-08-23T03:40:43;16.90;52.40
65235;DHT22;51820;48.374;10.930;2022-08-23T03:53:08;16.80;52.20
65235;DHT22;51820;48.374;10.930;2022-08-23T03:55:40;16.70;52.80
65235;DHT22;51820;48.374;10.930;2022-08-23T04:05:54;14.50;61.90
65235;DHT22;51820;48.374;10.930;2022-08-23T04:08:23;16.70;53.20
65235;DHT22;51820;48.374;10.930;2022-08-23T04:11:00;14.60;73.50
65235;DHT22;51820;48.374;10.930;2022-08-23T04:16:01;16.60;53.70
65235;DHT22;51820;48.374;10.930;2022-08-23T04:18:31;16.60;53.70
65235;DHT22;51820;48.374;10.930;2022-08-23T04:21:03;16.70;54.20
65235;DHT22;51820;48.374;10.930;2022-08-23T04:23:33;16.70;54.50
65235;DHT22;51820;48.374;10.930;2022-08-23T04:31:04;16.60;54.90
65235;DHT22;51820;48.374;10.930;2022-08-23T04:38:38;16.50;55.70
65235;DHT22;51820;48.374;10.930;2022-08-23T04:53:57;16.40;56.30
65235;DHT22;51820;48.374;10.930;2022-08-23T05:09:21;16.20;55.60
65235;DHT22;51820;48.374;10.930;2022-08-23T05:16:49;21.10;80.00
65235;DHT22;51820;48.374;10.930;2022-08-23T05:19:19;15.80;77.50
65235;DHT22;51820;48.374;10.930;2022-08-23T05:24:26;16.10;55.90
65235;DHT22;51820;48.374;10.930;2022-08-23T05:39:31;16.10;56.00
65235;DHT22;51820;48.374;10.930;2022-08-23T05:42:05;16.10;56.10
65235;DHT22;51820;48.374;10.930;2022-08-23T05:47:06;16.20;56.00
65235;DHT22;51820;48.374;10.930;2022-08-23T05:54:44;16.30;55.80
65235;DHT22;51820;48.374;10.930;2022-08-23T05:57:33;16.30;56.00
65235;DHT22;51820;48.374;10.930;2022-08-23T06:00:02;15.20;66.30
65235;DHT22;51820;48.374;10.930;2022-08-23T06:10:00;14.50;61.50
65235;DHT22;51820;48.374;10.930;2022-08-23T06:17:29;13.50;75.90
65235;DHT22;51820;48.374;10.930;2022-08-23T06:25:06;16.60;55.50
65235;DHT22;51820;48.374;10.930;2022-08-23T06:30:37;16.60;55.80
65235;DHT22;51820;48.374;10.930;2022-08-23T06:36:23;21.60;79.40
65235;DHT22;51820;48.374;10.930;2022-08-23T06:39:13;16.80;55.20
65235;DHT22;51820;48.374;10.930;2022-08-23T06:42:21;16.90;55.00
65235;DHT22;51820;48.374;10.930;2022-08-23T06:45:08;15.40;75.60
65235;DHT22;51820;48.374;10.930;2022-08-23T06:50:08;17.10;55.00
65235;DHT22;51820;48.374;10.930;2022-08-23T06:58:37;17.30;55.00
65235;DHT22;51820;48.374;10.930;2022-08-23T07:01:18;17.30;54.60
65235;DHT22;51820;48.374;10.930;2022-08-23T07:04:18;17.30;54.90
65235;DHT22;51820;48.374;10.930;2022-08-23T07:07:07;17.40;54.50
65235;DHT22;51820;48.374;10.930;2022-08-23T07:09:38;15.20;68.40
65235;DHT22;51820;48.374;10.930;2022-08-23T07:14:41;17.50;55.20
65235;DHT22;51820;48.374;10.930;2022-08-23T07:30:12;16.10;69.10
65235;DHT22;51820;48.374;10.930;2022-08-23T07:36:04;16.70;74.10
65235;DHT22;51820;48.374;10.930;2022-08-23T07:43:30;15.90;73.40
65235;DHT22;51820;48.374;10.930;2022-08-23T07:46:02;18.30;54.80
65235;DHT22;51820;48.374;10.930;2022-08-23T07:48:31;18.40;54.10
65235;DHT22;51820;48.374;10.930;2022-08-23T08:01:51;18.60;52.40
65235;DHT22;51820;48.374;10.930;2022-08-23T08:17:14;19.00;51.00
65235;DHT22;51820;48.374;10.930;2022-08-23T08:20:04;19.00;50.70
65235;DHT22;51820;48.374;10.930;2022-08-23T08:22:53;19.10;51.00
65235;DHT22;51820;48.374;10.930;2022-08-23T08:28:16;17.50;68.40
65235;DHT22;51820;48.374;10.930;2022-08-23T08:33:15;19.30;50.10
65235;DHT22;51820;48.374;10.930;2022-08-23T08:35:46;19.40;49.70
65235;DHT22;51820;48.374;10.930;2022-08-23T08:41:02;19.70;48.70
65235;DHT22;51820;48.374;10.930;2022-08-23T08:43:50;19.90;47.60
65235;DHT22;51820;48.374;10.930;2022-08-23T08:46:35;18.50;65.00
65235;DHT22;51820;48.374;10.930;2022-08-23T08:49:12;20.40;46.60
65235;DHT22;51820;48.374;10.930;2022-08-23T08:51:46;20.40;45.90
65235;DHT22;51820;48.374;10.930;2022-08-23T08:54:18;20.70;44.80
65235;DHT22;51820;48.374;10.930;2022-08-23T08:56:52;20.90;44.00
65235;DHT22;51820;48.374;10.930;2022-08-23T08:59:28;21.10;43.90
65235;DHT22;51820;48.374;10.930;2022-08-23T09:04:34;18.80;46.40
65235;DHT22;51820;48.374;10.930;2022-08-23T09:07:10;21.70;42.00
65235;DHT22;51820;48.374;10.930;2022-08-23T09:09:54;26.60;63.80
65235;DHT22;51820;48.374;10.930;2022-08-23T09:12:29;22.00;41.20
65235;DHT22;51820;48.374;10.930;2022-08-23T09:15:20;19.40;40.60
65235;DHT22;51820;48.374;10.930;2022-08-23T09:17:55;22.40;39.50
65235;DHT22;51820;48.374;10.930;2022-08-23T09:20:27;22.60;39.20
65235;DHT22;51820;48.374;10.930;2022-08-23T09:23:06;22.70;38.00
65235;DHT22;51820;48.374;10.930;2022-08-23T09:25:38;22.90;38.60
65235;DHT22;51820;48.374;10.930;2022-08-23T09:28:13;20.60;54.30
65235;DHT22;51820;48.374;10.930;2022-08-23T09:30:47;23.30;37.40
65235;DHT22;51820;48.374;10.930;2022-08-23T09:33:17;23.50;37.50
65235;DHT22;51820;48.374;10.930;2022-08-23T09:36:06;23.10;54.50
65235;DHT22;51820;48.374;10.930;2022-08-23T09:38:50;21.10;50.90
65235;DHT22;51820;48.374;10.930;2022-08-23T09:41:24;24.10;34.30
65235;DHT22;51820;48.374;10.930;2022-08-23T09:43:56;28.80;54.80
65235;DHT22;51820;48.374;10.930;2022-08-23T09:46:31;24.50;34.60
65235;DHT22;51820;48.374;10.930;2022-08-23T09:49:21;24.70;33.50
65235;DHT22;51820;48.374;10.930;2022-08-23T09:51:54;24.90;33.50
65235;DHT22;51820;48.374;10.930;2022-08-23T09:54:28;25.20;33.40
65235;DHT22;51820;48.374;10.930;2022-08-23T09:57:00;25.40;32.70
65235;DHT22;51820;48.374;10.930;2022-08-23T09:59:36;25.50;32.40
65235;DHT22;51820;48.374;10.930;2022-08-23T10:02:16;25.70;31.90
65235;DHT22;51820;48.374;10.930;2022-08-23T10:04:57;25.90;31.80
65235;DHT22;51820;48.374;10.930;2022-08-23T10:07:34;26.00;30.60
65235;DHT22;51820;48.374;10.930;2022-08-23T10:10:16;26.10;30.70
65235;DHT22;51820;48.374;10.930;2022-08-23T10:15:16;26.30;30.30
65235;DHT22;51820;48.374;10.930;2022-08-23T10:17:49;24.50;44.60
65235;DHT22;51820;48.374;10.930;2022-08-23T10:20:30;26.50;29.90
65235;DHT22;51820;48.374;10.930;2022-08-23T10:23:13;26.60;29.90
65235;DHT22;51820;48.374;10.930;2022-08-23T10:25:53;26.70;30.70
65235;DHT22;51820;48.374;10.930;2022-08-23T10:28:31;26.80;29.60
65235;DHT22;51820;48.374;10.930;2022-08-23T10:31:30;26.90;28.90
65235;DHT22;51820;48.374;10.930;2022-08-23T10:34:10;27.00;27.50
65235;DHT22;51820;48.374;10.930;2022-08-23T10:36:49;27.10;27.90
65235;DHT22;51820;48.374;10.930;2022-08-23T10:39:26;27.10;25.50
65235;DHT22;51820;48.374;10.930;2022-08-23T10:42:00;27.10;26.10
65235;DHT22;51820;48.374;10.930;2022-08-23T10:44:37;27.10;26.60
65235;DHT22;51820;48.374;10.930;2022-08-23T10:47:17;27.10;26.90
65235;DHT22;51820;48.374;10.930;2022-08-23T10:49:50;25.30;38.10
65235;DHT22;51820;48.374;10.930;2022-08-23T10:52:26;25.40;38.30
65235;DHT22;51820;48.374;10.930;2022-08-23T10:55:00;26.20;40.20
65235;DHT22;51820;48.374;10.930;2022-08-23T10:57:37;27.40;26.70
65235;DHT22;51820;48.374;10.930;2022-08-23T11:00:10;26.00;28.10
65235;DHT22;51820;48.374;10.930;2022-08-23T11:02:43;27.50;27.80
65235;DHT22;51820;48.374;10.930;2022-08-23T11:05:28;27.70;27.90
65235;DHT22;51820;48.374;10.930;2022-08-23T11:08:03;26.00;40.40
65235;DHT22;51820;48.374;10.930;2022-08-23T11:10:43;27.90;28.10
65235;DHT22;51820;48.374;10.930;2022-08-23T11:13:29;28.00;28.00
65235;DHT22;51820;48.374;10.930;2022-08-23T11:16:04;28.10;27.80
65235;DHT22;51820;48.374;10.930;2022-08-23T11:18:41;27.20;40.40
65235;DHT22;51820;48.374;10.930;2022-08-23T11:21:41;27.90;32.90
65235;DHT22;51820;48.374;10.930;2022-08-23T11:24:31;28.30;27.10
65235;DHT22;51820;48.374;10.930;2022-08-23T11:27:05;27.60;39.10
65235;DHT22;51820;48.374;10.930;2022-08-23T11:29:41;27.30;39.30
65235;DHT22;51820;48.374;10.930;2022-08-23T11:32:39;27.20;39.10
65235;DHT22;51820;48.374;10.930;2022-08-23T11:35:31;27.20;37.20
65235;DHT22;51820;48.374;10.930;2022-08-23T11:38:07;26.40;29.30
65235;DHT22;51820;48.374;10.930;2022-08-23T11:41:16;28.40;26.30
65235;DHT22;51820;48.374;10.930;2022-08-23T11:44:16;28.50;26.30
65235;DHT22;51820;48.374;10.930;2022-08-23T11:47:00;28.50;26.40
65235;DHT22;51820;48.374;10.930;2022-08-23T11:52:46;27.40;37.20
65235;DHT22;51820;48.374;10.930;2022-08-23T11:55:25;28.60;25.30
65235;DHT22;51820;48.374;10.930;2022-08-23T11:58:13;28.60;24.60
65235;DHT22;51820;48.374;10.930;2022-08-23T12:01:04;27.00;34.90
65235;DHT22;51820;48.374;10.930;2022-08-23T12:03:39;28.50;25.70
65235;DHT22;51820;48.374;10.930;2022-08-23T12:06:37;28.60;25.50
65235;DHT22;51820;48.374;10.930;2022-08-23T12:09:11;27.70;37.10
65235;DHT22;51820;48.374;10.930;2022-08-23T12:12:10;28.80;25.50
65235;DHT22;51820;48.374;10.930;2022-08-23T12:14:51;28.90;25.10
65235;DHT22;51820;48.374;10.930;2022-08-23T12:20:41;29.40;24.80
65235;DHT22;51820;48.374;10.930;2022-08-23T12:23:19;28.10;34.80
65235;DHT22;51820;48.374;10.930;2022-08-23T12:25:59;28.10;34.40
65235;DHT22;51820;48.374;10.930;2022-08-23T12:28:46;28.20;34.40
65235;DHT22;51820;48.374;10.930;2022-08-23T12:31:20;28.10;33.70
65235;DHT22;51820;48.374;10.930;2022-08-23T12:34:07;29.80;24.60
65235;DHT22;51820;48.374;10.930;2022-08-23T12:36:44;31.70;25.20
65235;DHT22;51820;48.374;10.930;2022-08-23T12:39:23;29.60;23.30
65235;DHT22;51820;48.374;10.930;2022-08-23T12:41:54;29.50;23.90
65235;DHT22;51820;48.374;10.930;2022-08-23T12:44:26;29.50;23.80
65235;DHT22;51820;48.374;10.930;2022-08-23T12:46:55;29.10;33.80
65235;DHT22;51820;48.374;10.930;2022-08-23T12:49:27;29.60;33.70
65235;DHT22;51820;48.374;10.930;2022-08-23T12:52:00;29.30;23.50
65235;DHT22;51820;48.374;10.930;2022-08-23T12:54:35;29.00;34.30
65235;DHT22;51820;48.374;10.930;2022-08-23T12:57:06;29.20;24.40
65235;DHT22;51820;48.374;10.930;2022-08-23T12:59:45;29.30;24.50
65235;DHT22;51820;48.374;10.930;2022-08-23T13:02:22;29.30;24.80
65235;DHT22;51820;48.374;10.930;2022-08-23T13:04:51;28.50;34.70
65235;DHT22;51820;48.374;10.930;2022-08-23T13:07:25;29.20;24.60
65235;DHT22;51820;48.374;10.930;2022-08-23T13:09:53;28.80;36.20
65235;DHT22;51820;48.374;10.930;2022-08-23T13:12:22;28.50;37.80
65235;DHT22;51820;48.374;10.930;2022-08-23T13:14:53;29.10;26.10
65235;DHT22;51820;48.374;10.930;2022-08-23T13:17:30;29.00;36.90
65235;DHT22;51820;48.374;10.930;2022-08-23T13:20:18;28.10;37.40
65235;DHT22;51820;48.374;10.930;2022-08-23T13:22:57;27.30;37.00
65235;DHT22;51820;48.374;10.930;2022-08-23T13:25:29;27.80;36.40
65235;DHT22;51820;48.374;10.930;2022-08-23T13:28:00;28.80;26.60
65235;DHT22;51820;48.374;10.930;2022-08-23T13:30:30;28.50;36.90
65235;DHT22;51820;48.374;10.930;2022-08-23T13:33:19;27.10;35.10
65235;DHT22;51820;48.374;10.930;2022-08-23T13:35:48;27.20;35.90
65235;DHT22;51820;48.374;10.930;2022-08-23T13:38:22;27.20;36.10
65235;DHT22;51820;48.374;10.930;2022-08-23T13:40:57;27.40;35.50
65235;DHT22;51820;48.374;10.930;2022-08-23T13:43:30;28.50;25.60
65235;DHT22;51820;48.374;10.930;2022-08-23T13:46:10;28.30;37.90
65235;DHT22;51820;48.374;10.930;2022-08-23T13:48:46;28.40;25.90
65235;DHT22;51820;48.374;10.930;2022-08-23T13:51:23;26.80;37.70
65235;DHT22;51820;48.374;10.930;2022-08-23T13:53:54;28.30;38.50
65235;DHT22;51820;48.374;10.930;2022-08-23T13:56:23;28.30;26.60
65235;DHT22;51820;48.374;10.930;2022-08-23T13:58:54;28.20;26.90
65235;DHT22;51820;48.374;10.930;2022-08-23T14:01:23;28.10;38.80
65235;DHT22;51820;48.374;10.930;2022-08-23T14:03:52;31.30;41.10
65235;DHT22;51820;48.374;10.930;2022-08-23T14:06:20;27.40;38.10
65235;DHT22;51820;48.374;10.930;2022-08-23T14:08:49;28.10;37.90
65235;DHT22;51820;48.374;10.930;2022-08-23T14:11:19;27.10;38.30
65235;DHT22;51820;48.374;10.930;2022-08-23T14:13:48;26.10;38.80
65235;DHT22;51820;48.374;10.930;2022-08-23T14:16:22;26.80;38.30
65235;DHT22;51820;48.374;10.930;2022-08-23T14:24:19;27.10;37.40
65235;DHT22;51820;48.374;10.930;2022-08-23T14:26:48;26.60;37.60
65235;DHT22;51820;48.374;10.930;2022-08-23T14:29:18;26.70;38.30
65235;DHT22;51820;48.374;10.930;2022-08-23T14:39:33;26.90;39.20
65235;DHT22;51820;48.374;10.930;2022-08-23T14:42:04;27.40;39.70
65235;DHT22;51820;48.374;10.930;2022-08-23T14:44:32;27.00;40.10
65235;DHT22;51820;48.374;10.930;2022-08-23T14:47:03;27.60;27.70
65235;DHT22;51820;48.374;10.930;2022-08-23T14:49:31;26.10;38.80
65235;DHT22;51820;48.374;10.930;2022-08-23T14:54:29;25.70;40.30
65235;DHT22;51820;48.374;10.930;2022-08-23T14:56:57;26.40;40.20
65235;DHT22;51820;48.374;10.930;2022-08-23T14:59:26;27.00;40.30
65235;DHT22;51820;48.374;10.930;2022-08-23T15:01:55;25.80;39.30
65235;DHT22;51820;48.374;10.930;2022-08-23T15:04:25;26.70;39.40
65235;DHT22;51820;48.374;10.930;2022-08-23T15:07:00;25.80;39.30
65235;DHT22;51820;48.374;10.930;2022-08-23T15:09:46;25.90;39.90
65235;DHT22;51820;48.374;10.930;2022-08-23T15:12:15;26.10;37.00
65235;DHT22;51820;48.374;10.930;2022-08-23T15:15:07;26.40;40.60
65235;DHT22;51820;48.374;10.930;2022-08-23T15:17:44;25.90;39.50
65235;DHT22;51820;48.374;10.930;2022-08-23T15:22:42;26.30;41.00
65235;DHT22;51820;48.374;10.930;2022-08-23T15:25:22;26.40;38.70
65235;DHT22;51820;48.374;10.930;2022-08-23T15:27:51;26.20;38.50
65235;DHT22;51820;48.374;10.930;2022-08-23T15:30:21;26.00;27.60
65235;DHT22;51820;48.374;10.930;2022-08-23T15:32:50;25.90;40.40
65235;DHT22;51820;48.374;10.930;2022-08-23T15:35:23;26.30;41.50
65235;DHT22;51820;48.374;10.930;2022-08-23T15:37:52;26.20;40.90
65235;DHT22;51820;48.374;10.930;2022-08-23T15:40:21;25.80;41.40
65235;DHT22;51820;48.374;10.930;2022-08-23T15:45:17;27.00;33.80
65235;DHT22;51820;48.374;10.930;2022-08-23T15:47:49;26.20;42.20
65235;DHT22;51820;48.374;10.930;2022-08-23T15:50:20;25.60;42.40
65235;DHT22;51820;48.374;10.930;2022-08-23T15:52:48;25.20;42.70
65235;DHT22;51820;48.374;10.930;2022-08-23T15:55:17;25.30;41.60
65235;DHT22;51820;48.374;10.930;2022-08-23T15:57:48;26.10;42.80
65235;DHT22;51820;48.374;10.930;2022-08-23T16:00:20;26.60;43.30
65235;DHT22;51820;48.374;10.930;2022-08-23T16:02:50;25.90;42.50
65235;DHT22;51820;48.374;10.930;2022-08-23T16:05:39;26.00;42.70
65235;DHT22;51820;48.374;10.930;2022-08-23T16:08:13;26.20;42.30
65235;DHT22;51820;48.374;10.930;2022-08-23T16:10:43;25.20;41.90
65235;DHT22;51820;48.374;10.930;2022-08-23T16:13:11;26.40;43.00
65235;DHT22;51820;48.374;10.930;2022-08-23T16:15:39;25.70;42.00
65235;DHT22;51820;48.374;10.930;2022-08-23T16:18:09;26.70;28.70
65235;DHT22;51820;48.374;10.930;2022-08-23T16:20:37;25.70;30.90
65235;DHT22;51820;48.374;10.930;2022-08-23T16:28:03;25.60;32.80
65235;DHT22;51820;48.374;10.930;2022-08-23T16:33:02;26.40;40.10
65235;DHT22;51820;48.374;10.930;2022-08-23T16:35:31;26.70;27.80
65235;DHT22;51820;48.374;10.930;2022-08-23T16:37:59;25.70;39.40
65235;DHT22;51820;48.374;10.930;2022-08-23T16:40:28;26.30;41.30
65235;DHT22;51820;48.374;10.930;2022-08-23T16:45:24;25.10;40.10
65235;DHT22;51820;48.374;10.930;2022-08-23T16:47:53;26.20;41.10
65235;DHT22;51820;48.374;10.930;2022-08-23T16:52:51;26.70;26.60
65235;DHT22;51820;48.374;10.930;2022-08-23T16:57:48;26.70;25.30
65235;DHT22;51820;48.374;10.930;2022-08-23T17:02:45;25.80;38.00
65235;DHT22;51820;48.374;10.930;2022-08-23T17:05:16;26.00;37.90
65235;DHT22;51820;48.374;10.930;2022-08-23T17:10:16;26.70;24.90
65235;DHT22;51820;48.374;10.930;2022-08-23T17:12:47;26.70;24.80
65235;DHT22;51820;48.374;10.930;2022-08-23T17:15:17;26.70;24.70
65235;DHT22;51820;48.374;10.930;2022-08-23T17:17:46;26.50;38.20
65235;DHT22;51820;48.374;10.930;2022-08-23T17:20:15;24.80;37.10
65235;DHT22;51820;48.374;10.930;2022-08-23T17:25:23;26.60;38.50
65235;DHT22;51820;48.374;10.930;2022-08-23T17:27:52;26.50;24.90
65235;DHT22;51820;48.374;10.930;2022-08-23T17:30:23;26.50;25.00
65235;DHT22;51820;48.374;10.930;2022-08-23T17:32:52;26.40;24.90
65235;DHT22;51820;48.374;10.930;2022-08-23T17:35:23;26.40;25.20
65235;DHT22;51820;48.374;10.930;2022-08-23T17:37:52;26.40;39.10
65235;DHT22;51820;48.374;10.930;2022-08-23T17:40:26;26.30;25.10
65235;DHT22;51820;48.374;10.930;2022-08-23T17:42:55;26.30;25.40
65235;DHT22;51820;48.374;10.930;2022-08-23T17:57:50;26.00;25.50
65235;DHT22;51820;48.374;10.930;2022-08-23T18:00:28;24.80;38.70
65235;DHT22;51820;48.374;10.930;2022-08-23T18:05:29;25.90;26.00
65235;DHT22;51820;48.374;10.930;2022-08-23T18:10:28;25.70;26.00
65235;DHT22;51820;48.374;10.930;2022-08-23T18:12:58;25.20;39.60
65235;DHT22;51820;48.374;10.930;2022-08-23T18:17:58;24.50;39.90
65235;DHT22;51820;48.374;10.930;2022-08-23T18:20:27;25.60;26.20
65235;DHT22;51820;48.374;10.930;2022-08-23T18:22:57;25.50;26.40
65235;DHT22;51820;48.374;10.930;2022-08-23T18:30:43;25.40;26.80
65235;DHT22;51820;48.374;10.930;2022-08-23T18:33:13;25.40;27.00
65235;DHT22;51820;48.374;10.930;2022-08-23T18:35:44;24.10;27.50
65235;DHT22;51820;48.374;10.930;2022-08-23T18:38:13;24.70;41.60
65235;DHT22;51820;48.374;10.930;2022-08-23T18:40:43;25.10;27.50
65235;DHT22;51820;48.374;10.930;2022-08-23T18:43:14;25.10;27.70
65235;DHT22;51820;48.374;10.930;2022-08-23T18:45:45;24.60;27.70
65235;DHT22;51820;48.374;10.930;2022-08-23T18:53:12;24.80;28.40
65235;DHT22;51820;48.374;10.930;2022-08-23T18:58:10;24.70;28.60
65235;DHT22;51820;48.374;10.930;2022-08-23T19:00:38;22.90;43.20
65235;DHT22;51820;48.374;10.930;2022-08-23T19:03:09;24.60;28.80
65235;DHT22;51820;48.374;10.930;2022-08-23T19:05:40;22.90;43.70
65235;DHT22;51820;48.374;10.930;2022-08-23T19:08:09;24.50;29.20
65235;DHT22;51820;48.374;10.930;2022-08-23T19:10:39;24.40;29.30
65235;DHT22;51820;48.374;10.930;2022-08-23T19:15:37;24.30;29.70
65235;DHT22;51820;48.374;10.930;2022-08-23T19:18:06;22.70;44.70
65235;DHT22;51820;48.374;10.930;2022-08-23T19:20:36;24.20;29.70
65235;DHT22;51820;48.374;10.930;2022-08-23T19:23:06;24.20;30.10
65235;DHT22;51820;48.374;10.930;2022-08-23T19:28:05;24.10;30.60
65235;DHT22;51820;48.374;10.930;2022-08-23T19:30:33;22.70;46.00
65235;DHT22;51820;48.374;10.930;2022-08-23T19:38:01;23.90;31.50
65235;DHT22;51820;48.374;10.930;2022-08-23T19:40:30;23.40;48.00
65235;DHT22;51820;48.374;10.930;2022-08-23T19:55:31;22.90;49.40
65235;DHT22;51820;48.374;10.930;2022-08-23T20:05:27;23.30;33.70
65235;DHT22;51820;48.374;10.930;2022-08-23T20:12:54;23.40;34.20
65235;DHT22;51820;48.374;10.930;2022-08-23T20:28:05;23.00;34.50
65235;DHT22;51820;48.374;10.930;2022-08-23T20:30:34;21.20;51.20
65235;DHT22;51820;48.374;10.930;2022-08-23T20:38:00;22.80;54.10
65235;DHT22;51820;48.374;10.930;2022-08-23T20:42:58;21.90;54.00
65235;DHT22;51820;48.374;10.930;2022-08-23T20:45:29;22.80;37.30
65235;DHT22;51820;48.374;10.930;2022-08-23T21:02:51;22.50;38.40
65235;DHT22;51820;48.374;10.930;2022-08-23T21:20:15;21.90;40.40
65235;DHT22;51820;48.374;10.930;2022-08-23T21:30:09;21.60;58.50
65235;DHT22;51820;48.374;10.930;2022-08-23T21:35:07;20.60;59.60
65235;DHT22;51820;48.374;10.930;2022-08-23T21:37:37;21.60;41.20
65235;DHT22;51820;48.374;10.930;2022-08-23T21:40:07;21.60;42.00
65235;DHT22;51820;48.374;10.930;2022-08-23T21:45:05;21.50;42.00
65235;DHT22;51820;48.374;10.930;2022-08-23T21:50:03;22.60;43.60
65235;DHT22;51820;48.374;10.930;2022-08-23T21:55:02;21.40;42.40
65235;DHT22;51820;48.374;10.930;2022-08-23T22:00:04;21.30;43.40
65235;DHT22;51820;48.374;10.930;2022-08-23T22:10:08;21.20;43.80
65235;DHT22;51820;48.374;10.930;2022-08-23T22:12:37;25.70;66.90
65235;DHT22;51820;48.374;10.930;2022-08-23T22:15:06;21.10;44.20
65235;DHT22;51820;48.374;10.930;2022-08-23T22:25:06;18.70;63.60
65235;DHT22;51820;48.374;10.930;2022-08-23T22:30:03;20.90;45.00
65235;DHT22;51820;48.374;10.930;2022-08-23T22:42:27;20.60;45.80
65235;DHT22;51820;48.374;10.930;2022-08-23T22:59:48;20.40;47.10
65235;DHT22;51820;48.374;10.930;2022-08-23T23:10:04;20.20;48.70
65235;DHT22;51820;48.374;10.930;2022-08-23T23:15:02;20.20;49.00
65235;DHT22;51820;48.374;10.930;2022-08-23T23:30:12;20.00;49.80
65235;DHT22;51820;48.374;10.930;2022-08-23T23:40:08;18.60;69.30
65235;DHT22;51820;48.374;10.930;2022-08-23T23:45:06;19.80;50.00
65235;DHT22;51820;48.374;10.930;2022-08-23T23:47:36;19.70;49.90
65235;DHT22;51820;48.374;10.930;2022-08-23T23:50:05;19.70;50.30
65235;DHT22;51820;48.374;10.930;2022-08-23T23:52:34;19.60;50.60
